DAL1428 KSEA-KSFO
Flight info
| Callsign | DAL1428 |
|---|---|
| Flight time | N/A |
| Altitude | 35000 |
| Route | HAROB6 ERAVE Q1 ETCHY MLBEC BDEGA4 |
| Aircraft | B739/M-SDE2E3FGHIRWXY/LB1 |
Departure
| Time | N/A |
|---|---|
| Airport | Seattle–Tacoma International Airport (KSEA) |
Arrival
| Time | 2026-05-05 20:17 |
|---|---|
| Airport | San Francisco International Airport (KSFO) |
| Time | Latitude | Longitude | Altitude | Speed | Heading |
|---|---|---|---|---|---|
| 2026-05-05 19:43 | 39.24132 | -123.14185 | 34861 ft | 474 kts | 172° |
| 2026-05-05 19:43 | 39.20825 | -123.14033 | 34950 ft | 477 kts | 172° |
| 2026-05-05 19:44 | 39.14577 | -123.13745 | 35053 ft | 483 kts | 171° |
| 2026-05-05 19:44 | 39.11253 | -123.13247 | 35056 ft | 478 kts | 160° |
| 2026-05-05 19:44 | 39.08090 | -123.12078 | 35062 ft | 470 kts | 152° |
| 2026-05-05 19:44 | 39.05108 | -123.10381 | 34928 ft | 465 kts | 143° |
| 2026-05-05 19:45 | 39.02352 | -123.08203 | 34378 ft | 465 kts | 139° |
| 2026-05-05 19:45 | 38.99665 | -123.05925 | 33798 ft | 461 kts | 138° |
| 2026-05-05 19:45 | 38.97008 | -123.03686 | 33241 ft | 456 kts | 139° |
| 2026-05-05 19:45 | 38.94354 | -123.01488 | 32683 ft | 452 kts | 139° |
| 2026-05-05 19:46 | 38.91718 | -122.99338 | 32171 ft | 447 kts | 140° |
| 2026-05-05 19:46 | 38.89129 | -122.97241 | 31660 ft | 442 kts | 140° |
| 2026-05-05 19:46 | 38.86385 | -122.95423 | 31154 ft | 451 kts | 156° |
| 2026-05-05 19:46 | 38.83286 | -122.94499 | 30813 ft | 449 kts | 160° |
| 2026-05-05 19:47 | 38.80275 | -122.93686 | 30299 ft | 446 kts | 160° |
| 2026-05-05 19:47 | 38.77240 | -122.92844 | 29747 ft | 442 kts | 160° |
| 2026-05-05 19:47 | 38.74262 | -122.91988 | 29199 ft | 438 kts | 160° |
| 2026-05-05 19:47 | 38.71329 | -122.91127 | 28699 ft | 433 kts | 160° |
| 2026-05-05 19:48 | 38.68403 | -122.90258 | 28190 ft | 429 kts | 160° |
| 2026-05-05 19:48 | 38.65513 | -122.89400 | 27727 ft | 425 kts | 160° |
| 2026-05-05 19:48 | 38.62636 | -122.88550 | 27241 ft | 422 kts | 160° |
| 2026-05-05 19:48 | 38.59784 | -122.87709 | 26753 ft | 419 kts | 160° |
| 2026-05-05 19:49 | 38.56947 | -122.86873 | 26273 ft | 416 kts | 161° |
| 2026-05-05 19:49 | 38.55075 | -122.86322 | 25960 ft | 415 kts | 161° |
| 2026-05-05 19:49 | 38.51353 | -122.85226 | 25325 ft | 412 kts | 161° |
| 2026-05-05 19:49 | 38.48575 | -122.84408 | 24852 ft | 410 kts | 162° |
| 2026-05-05 19:50 | 38.45788 | -122.83588 | 24354 ft | 410 kts | 162° |
| 2026-05-05 19:50 | 38.43011 | -122.82771 | 23873 ft | 409 kts | 162° |
| 2026-05-05 19:50 | 38.40244 | -122.81958 | 23343 ft | 408 kts | 163° |
| 2026-05-05 19:50 | 38.37480 | -122.81148 | 22817 ft | 405 kts | 163° |
| 2026-05-05 19:51 | 38.34740 | -122.80345 | 22330 ft | 403 kts | 163° |
| 2026-05-05 19:51 | 38.32023 | -122.79550 | 21859 ft | 400 kts | 163° |
| 2026-05-05 19:51 | 38.29307 | -122.78754 | 21391 ft | 397 kts | 163° |
| 2026-05-05 19:51 | 38.26649 | -122.77976 | 20938 ft | 395 kts | 163° |
| 2026-05-05 19:52 | 38.23975 | -122.77195 | 20485 ft | 393 kts | 164° |
| 2026-05-05 19:52 | 38.21323 | -122.76421 | 20002 ft | 391 kts | 164° |
| 2026-05-05 19:52 | 38.18644 | -122.75641 | 19495 ft | 392 kts | 164° |
| 2026-05-05 19:52 | 38.15983 | -122.74867 | 19011 ft | 391 kts | 164° |
| 2026-05-05 19:53 | 38.13343 | -122.74101 | 18569 ft | 389 kts | 164° |
| 2026-05-05 19:53 | 38.10737 | -122.73344 | 18055 ft | 389 kts | 165° |
| 2026-05-05 19:53 | 38.08094 | -122.72577 | 17563 ft | 386 kts | 165° |
| 2026-05-05 19:53 | 38.05478 | -122.71819 | 17091 ft | 384 kts | 165° |
| 2026-05-05 19:54 | 38.02878 | -122.71065 | 16630 ft | 381 kts | 165° |
| 2026-05-05 19:54 | 38.00301 | -122.70319 | 16163 ft | 379 kts | 165° |
| 2026-05-05 19:54 | 37.97732 | -122.69574 | 15652 ft | 379 kts | 165° |
| 2026-05-05 19:54 | 37.95158 | -122.68829 | 15194 ft | 377 kts | 165° |
| 2026-05-05 19:55 | 37.92595 | -122.68089 | 14732 ft | 376 kts | 165° |
| 2026-05-05 19:55 | 37.90119 | -122.67212 | 14271 ft | 372 kts | 153° |
| 2026-05-05 19:55 | 37.88006 | -122.65414 | 13843 ft | 363 kts | 136° |
| 2026-05-05 19:55 | 37.86114 | -122.63344 | 13312 ft | 355 kts | 135° |
| 2026-05-05 19:56 | 37.84268 | -122.61337 | 12893 ft | 344 kts | 136° |
| 2026-05-05 19:56 | 37.82461 | -122.59403 | 12473 ft | 335 kts | 136° |
| 2026-05-05 19:56 | 37.80700 | -122.57529 | 12068 ft | 326 kts | 136° |
| 2026-05-05 19:56 | 37.79005 | -122.55734 | 11682 ft | 318 kts | 136° |
| 2026-05-05 19:57 | 37.77325 | -122.53955 | 11320 ft | 313 kts | 136° |
| 2026-05-05 19:57 | 37.76229 | -122.52796 | 11218 ft | 306 kts | 136° |
| 2026-05-05 19:57 | 37.74599 | -122.51073 | 11113 ft | 309 kts | 136° |
| 2026-05-05 19:57 | 37.72393 | -122.48733 | 11029 ft | 314 kts | 135° |
| 2026-05-05 19:58 | 37.70716 | -122.46948 | 11002 ft | 313 kts | 135° |
| 2026-05-05 19:58 | 37.69052 | -122.45177 | 10997 ft | 312 kts | 135° |
| 2026-05-05 19:58 | 37.67934 | -122.43987 | 11009 ft | 312 kts | 135° |
| 2026-05-05 19:58 | 37.66333 | -122.42284 | 11001 ft | 313 kts | 135° |
| 2026-05-05 19:59 | 37.64682 | -122.40531 | 10993 ft | 313 kts | 136° |
| 2026-05-05 19:59 | 37.63066 | -122.38816 | 11009 ft | 313 kts | 135° |
| 2026-05-05 19:59 | 37.61416 | -122.37071 | 10933 ft | 313 kts | 136° |
| 2026-05-05 19:59 | 37.59593 | -122.35441 | 10092 ft | 327 kts | 144° |
| 2026-05-05 20:00 | 37.57636 | -122.33974 | 9764 ft | 317 kts | 147° |
| 2026-05-05 20:00 | 37.55743 | -122.32647 | 9688 ft | 303 kts | 147° |
| 2026-05-05 20:00 | 37.53931 | -122.31388 | 9396 ft | 294 kts | 147° |
| 2026-05-05 20:00 | 37.52151 | -122.30155 | 8934 ft | 292 kts | 148° |
| 2026-05-05 20:01 | 37.50375 | -122.28941 | 8479 ft | 289 kts | 149° |
| 2026-05-05 20:01 | 37.48594 | -122.27763 | 8027 ft | 287 kts | 150° |
| 2026-05-05 20:01 | 37.46833 | -122.26624 | 7635 ft | 282 kts | 150° |
| 2026-05-05 20:01 | 37.45116 | -122.25495 | 7179 ft | 280 kts | 149° |
| 2026-05-05 20:02 | 37.43386 | -122.24385 | 6755 ft | 279 kts | 154° |
| 2026-05-05 20:02 | 37.41626 | -122.23360 | 6333 ft | 277 kts | 155° |
| 2026-05-05 20:02 | 37.39872 | -122.22364 | 5884 ft | 274 kts | 154° |
| 2026-05-05 20:02 | 37.38182 | -122.21378 | 5768 ft | 263 kts | 153° |
| 2026-05-05 20:03 | 37.36568 | -122.20365 | 5813 ft | 265 kts | 153° |
| 2026-05-05 20:03 | 37.34867 | -122.19300 | 5813 ft | 273 kts | 153° |
| 2026-05-05 20:03 | 37.33187 | -122.18224 | 5796 ft | 274 kts | 148° |
| 2026-05-05 20:03 | 37.31810 | -122.16637 | 5779 ft | 265 kts | 121° |
| 2026-05-05 20:04 | 37.30981 | -122.14653 | 5786 ft | 247 kts | 113° |
| 2026-05-05 20:04 | 37.30306 | -122.12741 | 5774 ft | 233 kts | 107° |
| 2026-05-05 20:04 | 37.29846 | -122.10810 | 5825 ft | 235 kts | 103° |
| 2026-05-05 20:04 | 37.29398 | -122.08806 | 5818 ft | 240 kts | 103° |
| 2026-05-05 20:05 | 37.29016 | -122.06766 | 5800 ft | 239 kts | 98° |
| 2026-05-05 20:05 | 37.28699 | -122.04728 | 5795 ft | 238 kts | 98° |
| 2026-05-05 20:05 | 37.28280 | -122.02706 | 5804 ft | 238 kts | 104° |
| 2026-05-05 20:05 | 37.27766 | -122.00754 | 5794 ft | 240 kts | 114° |
| 2026-05-05 20:06 | 37.26842 | -121.98956 | 5825 ft | 245 kts | 123° |
| 2026-05-05 20:06 | 37.25869 | -121.97207 | 5804 ft | 249 kts | 123° |
| 2026-05-05 20:06 | 37.24870 | -121.95402 | 5666 ft | 259 kts | 123° |
| 2026-05-05 20:06 | 37.23852 | -121.93474 | 5458 ft | 268 kts | 115° |
| 2026-05-05 20:07 | 37.23489 | -121.91271 | 5188 ft | 267 kts | 80° |
| 2026-05-05 20:07 | 37.24191 | -121.89211 | 4950 ft | 261 kts | 45° |
| 2026-05-05 20:07 | 37.25682 | -121.88019 | 4700 ft | 253 kts | 17° |
| 2026-05-05 20:07 | 37.27361 | -121.87639 | 4442 ft | 249 kts | 357° |
| 2026-05-05 20:08 | 37.29033 | -121.88055 | 4190 ft | 246 kts | 335° |
| 2026-05-05 20:08 | 37.30442 | -121.89237 | 3949 ft | 245 kts | 317° |
| 2026-05-05 20:08 | 37.31682 | -121.90710 | 3698 ft | 245 kts | 316° |
| 2026-05-05 20:08 | 37.32910 | -121.92202 | 3449 ft | 245 kts | 315° |
| 2026-05-05 20:09 | 37.34129 | -121.93686 | 3197 ft | 246 kts | 315° |
| 2026-05-05 20:09 | 37.35365 | -121.95190 | 3061 ft | 244 kts | 315° |
| 2026-05-05 20:09 | 37.36598 | -121.96686 | 3028 ft | 249 kts | 316° |
| 2026-05-05 20:09 | 37.37842 | -121.98193 | 3013 ft | 247 kts | 315° |
| 2026-05-05 20:10 | 37.39074 | -121.99686 | 3008 ft | 244 kts | 315° |
| 2026-05-05 20:10 | 37.40289 | -122.01157 | 3007 ft | 242 kts | 315° |
| 2026-05-05 20:10 | 37.41494 | -122.02616 | 3007 ft | 240 kts | 315° |
| 2026-05-05 20:10 | 37.42675 | -122.04041 | 3017 ft | 239 kts | 315° |
| 2026-05-05 20:11 | 37.43878 | -122.05501 | 3016 ft | 240 kts | 315° |
| 2026-05-05 20:11 | 37.45073 | -122.06944 | 3003 ft | 240 kts | 315° |
| 2026-05-05 20:11 | 37.46279 | -122.08409 | 3004 ft | 238 kts | 315° |
| 2026-05-05 20:11 | 37.47459 | -122.09839 | 2998 ft | 236 kts | 316° |
| 2026-05-05 20:12 | 37.48659 | -122.11293 | 3004 ft | 239 kts | 316° |
| 2026-05-05 20:12 | 37.49858 | -122.12747 | 3006 ft | 240 kts | 315° |
| 2026-05-05 20:12 | 37.51048 | -122.14191 | 2996 ft | 233 kts | 315° |
| 2026-05-05 20:12 | 37.52198 | -122.15587 | 2997 ft | 226 kts | 316° |
| 2026-05-05 20:13 | 37.53310 | -122.16939 | 2999 ft | 216 kts | 315° |
| 2026-05-05 20:13 | 37.54162 | -122.18439 | 2798 ft | 208 kts | 296° |
| 2026-05-05 20:13 | 37.54786 | -122.20053 | 2553 ft | 201 kts | 297° |
| 2026-05-05 20:13 | 37.55420 | -122.21584 | 2413 ft | 200 kts | 298° |
| 2026-05-05 20:14 | 37.56081 | -122.23160 | 2165 ft | 200 kts | 297° |
| 2026-05-05 20:14 | 37.56708 | -122.24646 | 1929 ft | 187 kts | 297° |
| 2026-05-05 20:14 | 37.57293 | -122.26027 | 1769 ft | 169 kts | 297° |
| 2026-05-05 20:14 | 37.57856 | -122.27372 | 1582 ft | 184 kts | 297° |
| 2026-05-05 20:15 | 37.58461 | -122.28820 | 1307 ft | 183 kts | 297° |
| 2026-05-05 20:15 | 37.59027 | -122.30171 | 1089 ft | 162 kts | 297° |
| 2026-05-05 20:15 | 37.59538 | -122.31357 | 820 ft | 146 kts | 298° |
| 2026-05-05 20:15 | 37.59983 | -122.32446 | 678 ft | 139 kts | 296° |
| 2026-05-05 20:16 | 37.60413 | -122.33479 | 493 ft | 130 kts | 296° |
| 2026-05-05 20:16 | 37.60817 | -122.34451 | 295 ft | 129 kts | 297° |
| 2026-05-05 20:16 | 37.61235 | -122.35444 | 143 ft | 130 kts | 297° |
| 2026-05-05 20:16 | 37.61586 | -122.36243 | 36 ft | 110 kts | 295° |
| 2026-05-05 20:17 | 37.61834 | -122.36859 | 20 ft | 70 kts | 296° |
| 2026-05-05 20:17 | 37.61961 | -122.37165 | 20 ft | 15 kts | 297° |
| 2026-05-05 20:17 | 37.61931 | -122.37252 | 20 ft | 12 kts | 217° |
| 2026-05-05 20:17 | 37.61862 | -122.37303 | 20 ft | 11 kts | 211° |
| 2026-05-05 20:18 | 37.61796 | -122.37355 | 20 ft | 11 kts | 212° |
| 2026-05-05 20:18 | 37.61733 | -122.37406 | 21 ft | 11 kts | 213° |
| 2026-05-05 20:18 | 37.61671 | -122.37454 | 21 ft | 12 kts | 223° |
| 2026-05-05 20:18 | 37.61643 | -122.37558 | 20 ft | 14 kts | 271° |
| 2026-05-05 20:19 | 37.61654 | -122.37666 | 21 ft | 11 kts | 277° |
| 2026-05-05 20:19 | 37.61665 | -122.37772 | 19 ft | 12 kts | 276° |
| 2026-05-05 20:19 | 37.61671 | -122.37827 | 20 ft | 1 kts | 276° |
| 2026-05-05 20:19 | 37.61673 | -122.37852 | 20 ft | 5 kts | 276° |
| 2026-05-05 20:20 | 37.61673 | -122.37903 | 20 ft | 0 kts | 258° |
| 2026-05-05 20:20 | 37.61671 | -122.37918 | 20 ft | 3 kts | 258° |
| 2026-05-05 20:20 | 37.61657 | -122.37960 | 20 ft | 7 kts | 233° |
| 2026-05-05 20:20 | 37.61615 | -122.37997 | 21 ft | 10 kts | 211° |
| 2026-05-05 20:21 | 37.61580 | -122.38065 | 19 ft | 8 kts | 271° |
| 2026-05-05 20:21 | 37.61592 | -122.38145 | 20 ft | 10 kts | 287° |
| 2026-05-05 20:21 | 37.61607 | -122.38226 | 19 ft | 1 kts | 273° |
| 2026-05-05 20:21 | 37.61608 | -122.38251 | 20 ft | 4 kts | 271° |
| 2026-05-05 20:22 | 37.61605 | -122.38273 | 20 ft | 2 kts | 255° |
| 2026-05-05 20:22 | 37.61598 | -122.38292 | 20 ft | 2 kts | 240° |
| 2026-05-05 20:22 | 37.61586 | -122.38308 | 21 ft | 1 kts | 226° |
| 2026-05-05 20:22 | 37.61584 | -122.38312 | 20 ft | 0 kts | 226° |
| 2026-05-05 20:23 | 37.61581 | -122.38315 | 20 ft | 1 kts | 225° |
| 2026-05-05 20:23 | 37.61573 | -122.38324 | 21 ft | 1 kts | 224° |
| 2026-05-05 20:23 | 37.61572 | -122.38325 | 21 ft | 0 kts | 224° |